This is the latest recevied weather packets stored in our database for station/object SQ5DN-4. If no packets are shown the sender has not sent any weather packets the latest 10 day(s).
| Time | Temp. | Humidity | Pressure | Rain* | Wind** | Luminosity | Snow |
|---|---|---|---|---|---|---|---|
| 1777698642 | 10.56° C | 67% | 1021 hPa | - | - | - | - |
| 1777698062 | 10.56° C | 68% | 1021 hPa | - | - | - | - |
| 1777697542 | 10.56° C | 68% | 1021 hPa | - | - | - | - |
| 1777696952 | 10° C | 69% | 1021 hPa | - | - | - | - |
| 1777696467 | 8.89° C | 71% | 1021 hPa | - | - | - | - |
| 1777695942 | 7.78° C | 74% | 1021 hPa | - | - | - | - |
| 1777695432 | 7.22° C | 78% | 1021 hPa | - | - | - | - |
| 1777694892 | 6.11° C | 83% | 1021 hPa | - | - | - | - |
| 1777694407 | 4.44° C | 88% | 1021 hPa | - | - | - | - |
| 1777693892 | 4.44° C | 88% | 1021 hPa | - | - | - | - |
| 1777693387 | 3.89° C | 92% | 1021 hPa | - | - | - | - |
| 1777692892 | 3.33° C | 92% | 1021 hPa | - | - | - | - |
| 1777692352 | 2.78° C | 92% | 1021 hPa | - | - | - | - |
| 1777691756 | 2.78° C | 90% | 1021 hPa | - | - | - | - |
| 1777691252 | 2.78° C | 89% | 1021 hPa | - | - | - | - |
| 1777690732 | 3.33° C | 87% | 1021 hPa | - | - | - | - |
| 1777690192 | 3.89° C | 89% | 1021 hPa | - | - | - | - |
| 1777689638 | 3.33° C | 87% | 1021 hPa | - | - | - | - |
| 1777689047 | 4.44° C | 84% | 1021 hPa | - | - | - | - |
| 1777688542 | 4.44° C | 84% | 1021 hPa | - | - | - | - |
| 1777687987 | 5° C | 83% | 1021 hPa | - | - | - | - |
| 1777687442 | 5.56° C | 81% | 1021 hPa | - | - | - | - |
| 1777686887 | 6.11° C | 81% | 1021 hPa | - | - | - | - |
| 1777686352 | 5.56° C | 81% | 1021 hPa | - | - | - | - |
| 1777685862 | 5.56° C | 80% | 1021 hPa | - | - | - | - |
* Rain since midnight (hover to see other rain measurements)
** Current wind speed in m/s (hover to see current wind gust speed)